Time;durP1;ratioP1;P1;durP2;ratioP2;P2;SDS_P1;SDS_P2;PMS_P1;PMS_P2;Temp;Humidity;BMP_temperature;BMP_pressure;BME280_temperature;BME280_humidity;BME280_pressure;Samples;Min_cycle;Max_cycle;Signal;HPM_P1;HPM_P2
2022/11/21 00:00:30;;;;;;;47.13;23.27;;;2.30;1.00;;;;;;4972518;28;20645;-58
2022/11/21 00:03:02;;;;;;;43.37;22.60;;;2.40;1.00;;;;;;4972175;28;20456;-57
2022/11/21 00:05:28;;;;;;;38.73;21.47;;;2.30;1.00;;;;;;4967841;28;20457;-58
2022/11/21 00:07:54;;;;;;;39.43;23.20;;;2.30;1.00;;;;;;4971220;28;20461;-58
2022/11/21 00:10:21;;;;;;;40.67;23.37;;;2.30;1.00;;;;;;4968682;28;20461;-58
2022/11/21 00:12:46;;;;;;;39.57;21.93;;;2.30;1.00;;;;;;4970988;28;20213;-58
2022/11/21 00:15:12;;;;;;;37.60;22.97;;;2.30;1.00;;;;;;4971724;28;20480;-59
2022/11/21 00:17:38;;;;;;;37.97;21.97;;;2.30;1.00;;;;;;4969872;28;20201;-58
2022/11/21 00:20:04;;;;;;;34.37;20.80;;;2.30;1.00;;;;;;4972634;28;20470;-57
2022/11/21 00:22:31;;;;;;;43.60;21.60;;;2.30;1.00;;;;;;4971609;28;20222;-57
2022/11/21 00:24:56;;;;;;;40.10;22.87;;;2.40;1.00;;;;;;4968343;28;20452;-58
2022/11/21 00:27:22;;;;;;;42.63;22.13;;;;;;;;;;4968079;28;20457;-57
2022/11/21 00:29:48;;;;;;;39.83;22.90;;;2.40;1.00;;;;;;4972393;28;20435;-57
2022/11/21 00:32:14;;;;;;;36.50;20.33;;;2.50;1.00;;;;;;4966465;28;20603;-57
2022/11/21 00:34:39;;;;;;;37.83;23.40;;;2.50;1.00;;;;;;4968524;28;20218;-59
2022/11/21 00:37:05;;;;;;;45.17;24.10;;;2.60;1.00;;;;;;4967398;28;20182;-59
2022/11/21 00:39:31;;;;;;;43.70;23.93;;;;;;;;;;4968335;28;20186;-58
2022/11/21 00:41:57;;;;;;;39.03;21.83;;;;;;;;;;4968515;28;20754;-57
2022/11/21 00:44:23;;;;;;;38.70;23.70;;;2.60;1.00;;;;;;4971929;28;20443;-56
2022/11/21 00:46:48;;;;;;;37.43;21.03;;;2.50;1.00;;;;;;4970718;28;20843;-58
2022/11/21 00:49:14;;;;;;;37.90;20.07;;;3.70;1.00;;;;;;4971908;28;20273;-58
2022/11/21 00:51:39;;;;;;;39.60;24.50;;;2.60;1.00;;;;;;4969976;28;20201;-58
2022/11/21 00:54:05;;;;;;;35.40;21.80;;;2.50;1.00;;;;;;4969889;28;20587;-57
2022/11/21 00:56:30;;;;;;;39.03;21.27;;;2.60;1.00;;;;;;4968818;28;20190;-57
2022/11/21 00:58:56;;;;;;;36.03;21.63;;;2.70;1.00;;;;;;4970138;28;20575;-56
2022/11/21 01:01:22;;;;;;;44.17;23.03;;;;;;;;;;4968393;28;20188;-56
2022/11/21 01:03:48;;;;;;;40.70;22.03;;;2.60;1.00;;;;;;4971690;28;20213;-57
2022/11/21 01:06:15;;;;;;;43.17;22.97;;;2.60;1.00;;;;;;4969510;28;21017;-57
2022/11/21 01:08:43;;;;;;;39.20;24.20;;;2.60;1.00;;;;;;4970037;28;20661;-55
2022/11/21 01:11:12;;;;;;;42.70;21.87;;;2.70;1.00;;;;;;4968869;28;20811;-57
2022/11/21 01:13:38;;;;;;;38.40;21.23;;;2.60;1.00;;;;;;4965705;28;20712;-56
2022/11/21 01:16:09;;;;;;;38.73;24.43;;;2.60;1.00;;;;;;4967079;28;20506;-58
2022/11/21 01:18:35;;;;;;;36.83;20.37;;;2.70;1.00;;;;;;4967270;28;20974;-57
2022/11/21 01:21:03;;;;;;;40.53;22.83;;;2.70;1.00;;;;;;4969144;28;20452;-58
2022/11/21 01:23:28;;;;;;;43.50;22.07;;;2.80;1.00;;;;;;4968166;28;20514;-59
2022/11/21 01:25:54;;;;;;;38.37;23.27;;;2.90;1.00;;;;;;4963541;28;20567;-58
2022/11/21 01:28:20;;;;;;;38.37;21.47;;;2.80;1.00;;;;;;4970288;28;20241;-58
2022/11/21 01:30:45;;;;;;;40.73;22.67;;;2.90;1.00;;;;;;4967384;28;20194;-57
2022/11/21 01:33:11;;;;;;;38.70;21.00;;;2.90;1.00;;;;;;4962648;28;20206;-58
2022/11/21 01:35:36;;;;;;;39.10;20.07;;;2.90;1.00;;;;;;4966466;28;20212;-57
2022/11/21 01:38:02;;;;;;;36.20;19.73;;;2.90;1.00;;;;;;4956871;28;20879;-56
2022/11/21 01:40:28;;;;;;;38.60;21.67;;;3.00;1.00;;;;;;4966667;28;20271;-57
2022/11/21 01:43:01;;;;;;;37.60;20.50;;;3.10;1.00;;;;;;4963357;28;20818;-57
2022/11/21 01:45:51;;;;;;;36.87;20.90;;;3.10;1.00;;;;;;4965472;28;20194;-57
2022/11/21 01:48:18;;;;;;;35.23;19.63;;;3.10;1.00;;;;;;4969221;28;20453;-58
2022/11/21 01:50:44;;;;;;;39.97;20.80;;;3.20;1.00;;;;;;4966481;28;20455;-56
2022/11/21 01:53:10;;;;;;;38.87;19.93;;;3.20;1.00;;;;;;4964740;28;20459;-56
2022/11/21 01:55:36;;;;;;;36.07;19.83;;;3.20;1.00;;;;;;4968665;28;21277;-57
2022/11/21 01:58:02;;;;;;;35.70;20.13;;;3.20;1.00;;;;;;4964646;28;20608;-58
2022/11/21 02:00:34;;;;;;;36.83;20.20;;;3.20;1.00;;;;;;4970858;28;20190;-57
2022/11/21 02:03:06;;;;;;;32.13;18.33;;;3.30;1.00;;;;;;4967012;28;20464;-56
2022/11/21 02:05:34;;;;;;;35.00;18.87;;;3.40;1.00;;;;;;4965716;28;20810;-57
2022/11/21 02:08:08;;;;;;;31.63;18.83;;;3.40;1.00;;;;;;4967226;28;20460;-57
2022/11/21 02:10:37;;;;;;;32.43;19.47;;;3.40;1.00;;;;;;4968859;28;20452;-56
2022/11/21 02:13:02;;;;;;;29.00;18.77;;;3.50;1.00;;;;;;4963730;28;20451;-57
2022/11/21 02:15:29;;;;;;;30.40;18.20;;;3.50;1.00;;;;;;4962124;28;20491;-57
2022/11/21 02:17:56;;;;;;;33.77;16.90;;;3.50;1.00;;;;;;4969681;28;20197;-56
2022/11/21 02:20:24;;;;;;;30.97;18.07;;;3.50;1.00;;;;;;4967021;28;20510;-56
2022/11/21 02:23:13;;;;;;;34.37;16.60;;;3.60;1.00;;;;;;4969798;28;20447;-57
2022/11/21 02:25:41;;;;;;;32.27;17.73;;;3.60;1.00;;;;;;4965802;28;20825;-58
2022/11/21 02:28:19;;;;;;;31.73;17.57;;;3.60;1.00;;;;;;4968349;28;20556;-57
2022/11/21 02:30:45;;;;;;;37.30;19.93;;;;;;;;;;4967978;28;20457;-57
2022/11/21 02:33:12;;;;;;;29.83;17.53;;;3.60;1.00;;;;;;4974606;28;20451;-57
2022/11/21 02:35:38;;;;;;;31.70;16.77;;;3.60;1.00;;;;;;4969379;28;20488;-56
2022/11/21 02:38:21;;;;;;;27.27;17.00;;;3.70;1.00;;;;;;4972695;28;20528;-58
2022/11/21 02:40:58;;;;;;;29.90;16.97;;;3.80;1.00;;;;;;4969320;28;20434;-57
2022/11/21 02:43:32;;;;;;;32.17;17.23;;;3.70;1.00;;;;;;4972774;28;20494;-56
2022/11/21 02:45:58;;;;;;;35.27;18.70;;;3.70;1.00;;;;;;4972742;28;20449;-57
2022/11/21 02:48:23;;;;;;;31.90;17.80;;;3.80;1.00;;;;;;4972002;28;20469;-58
2022/11/21 02:50:49;;;;;;;24.20;16.80;;;3.80;1.00;;;;;;4971992;28;20231;-58
2022/11/21 02:53:17;;;;;;;26.07;16.80;;;3.70;1.00;;;;;;4973233;28;20880;-57
2022/11/21 02:55:44;;;;;;;31.87;18.60;;;3.70;1.00;;;;;;4963358;28;20209;-57
2022/11/21 02:58:11;;;;;;;27.70;17.40;;;3.70;1.00;;;;;;4973990;28;20440;-57
2022/11/21 03:00:38;;;;;;;29.50;17.37;;;3.70;1.00;;;;;;4969203;28;20441;-57
2022/11/21 03:03:04;;;;;;;28.33;16.97;;;3.70;1.00;;;;;;4969654;28;20455;-59
2022/11/21 03:05:30;;;;;;;27.10;17.60;;;3.70;1.00;;;;;;4972207;28;21022;-57
2022/11/21 03:07:55;;;;;;;25.40;16.00;;;3.80;1.00;;;;;;4971695;28;20822;-56
2022/11/21 03:10:21;;;;;;;26.43;16.50;;;3.90;1.00;;;;;;4970300;28;20461;-56
2022/11/21 03:12:47;;;;;;;29.33;18.63;;;3.90;1.00;;;;;;4971929;28;20208;-57
2022/11/21 03:15:14;;;;;;;29.50;18.03;;;4.00;1.00;;;;;;4970574;28;20213;-57
2022/11/21 03:17:40;;;;;;;28.97;17.83;;;4.10;1.00;;;;;;4966810;28;20193;-56
2022/11/21 03:20:07;;;;;;;27.83;16.73;;;4.20;1.00;;;;;;4968730;28;20850;-57
2022/11/21 03:22:33;;;;;;;30.10;17.20;;;4.20;1.00;;;;;;4970201;28;20452;-58
2022/11/21 03:24:58;;;;;;;27.73;16.77;;;4.10;1.00;;;;;;4968623;28;20986;-59
2022/11/21 03:27:24;;;;;;;29.83;17.37;;;;;;;;;;4973056;28;20267;-57
2022/11/21 03:29:50;;;;;;;23.60;16.57;;;4.10;1.00;;;;;;4969640;28;20199;-57
2022/11/21 03:32:15;;;;;;;28.17;16.13;;;4.00;1.00;;;;;;4972358;28;20872;-57
2022/11/21 03:34:41;;;;;;;23.03;13.97;;;4.10;1.00;;;;;;4970769;28;20270;-56
2022/11/21 03:37:07;;;;;;;25.80;16.10;;;4.00;1.00;;;;;;4959734;28;20391;-56
2022/11/21 03:39:32;;;;;;;31.63;18.10;;;4.10;1.00;;;;;;4969006;28;20194;-58
2022/11/21 03:41:58;;;;;;;22.87;15.00;;;4.10;1.00;;;;;;4968831;28;20456;-58
2022/11/21 03:44:24;;;;;;;24.47;16.50;;;4.10;1.00;;;;;;4971718;28;20194;-57
2022/11/21 03:46:49;;;;;;;29.63;15.97;;;4.10;1.00;;;;;;4968047;28;20187;-56
2022/11/21 03:49:15;;;;;;;28.20;16.00;;;4.20;1.00;;;;;;4966652;28;20188;-57
2022/11/21 03:51:42;;;;;;;22.23;14.57;;;4.10;1.00;;;;;;4970476;28;20188;-57
2022/11/21 03:54:08;;;;;;;25.60;14.30;;;4.10;1.00;;;;;;4969638;28;20480;-57
2022/11/21 03:56:34;;;;;;;22.37;13.93;;;4.10;1.00;;;;;;4972776;28;20447;-58
2022/11/21 03:59:00;;;;;;;22.27;14.47;;;4.10;1.00;;;;;;4968288;28;20444;-56
2022/11/21 04:01:26;;;;;;;20.77;13.83;;;4.10;1.00;;;;;;4971512;28;20189;-57
2022/11/21 04:03:51;;;;;;;23.70;14.30;;;4.20;1.00;;;;;;4967628;28;20535;-57
2022/11/21 04:06:19;;;;;;;20.23;12.40;;;4.30;1.00;;;;;;4969545;28;20246;-57
2022/11/21 04:08:45;;;;;;;22.37;13.40;;;4.30;1.00;;;;;;4971263;28;20280;-57
2022/11/21 04:11:11;;;;;;;21.13;12.43;;;4.30;1.00;;;;;;4970066;28;20490;-58
2022/11/21 04:13:37;;;;;;;21.93;13.10;;;4.30;1.00;;;;;;4970186;28;20934;-58
2022/11/21 04:16:03;;;;;;;23.73;13.80;;;4.40;1.00;;;;;;4972736;28;20252;-58
2022/11/21 04:18:28;;;;;;;21.10;13.80;;;4.40;1.00;;;;;;4970746;28;20202;-57
2022/11/21 04:20:58;;;;;;;19.17;12.90;;;4.40;1.00;;;;;;4972111;28;20223;-57
2022/11/21 04:23:25;;;;;;;24.00;14.50;;;4.40;1.00;;;;;;4968882;28;20190;-57
2022/11/21 04:25:50;;;;;;;19.43;13.10;;;4.60;1.00;;;;;;4967879;28;20492;-58
2022/11/21 04:28:16;;;;;;;19.87;13.97;;;4.50;1.00;;;;;;4966727;28;20457;-58
2022/11/21 04:30:41;;;;;;;19.40;11.57;;;4.50;1.00;;;;;;4968599;28;20193;-56
2022/11/21 04:33:07;;;;;;;19.47;13.37;;;4.40;1.00;;;;;;4971502;28;20202;-57
2022/11/21 04:35:33;;;;;;;19.33;11.73;;;4.50;1.00;;;;;;4967740;28;20220;-57
2022/11/21 04:37:59;;;;;;;16.63;12.07;;;;;;;;;;4969351;28;20196;-58
2022/11/21 04:40:25;;;;;;;22.30;12.07;;;;;;;;;;4968498;28;20548;-59
2022/11/21 04:42:50;;;;;;;16.17;11.40;;;4.50;1.00;;;;;;4967749;28;20450;-57
2022/11/21 04:45:16;;;;;;;17.13;11.30;;;4.20;1.00;;;;;;4969446;28;20880;-57
2022/11/21 04:47:45;;;;;;;16.00;10.20;;;4.50;1.00;;;;;;4968458;28;20217;-57
2022/11/21 04:50:12;;;;;;;15.27;10.10;;;4.50;1.00;;;;;;4970796;28;20222;-58
2022/11/21 04:52:38;;;;;;;19.10;12.50;;;4.50;1.00;;;;;;4966497;28;20468;-58
2022/11/21 04:55:05;;;;;;;16.70;11.90;;;4.60;1.00;;;;;;4966450;28;20564;-58
2022/11/21 04:57:31;;;;;;;14.47;11.07;;;4.60;1.00;;;;;;4970652;28;20189;-57
2022/11/21 04:59:57;;;;;;;18.40;11.73;;;;;;;;;;4965530;28;20801;-56
2022/11/21 05:02:23;;;;;;;15.20;10.50;;;4.60;1.00;;;;;;4970134;28;20831;-58
2022/11/21 05:04:49;;;;;;;15.07;11.50;;;4.60;1.00;;;;;;4968905;28;20459;-61
2022/11/21 05:07:15;;;;;;;16.13;11.10;;;4.50;1.00;;;;;;4971389;28;20779;-58
2022/11/21 05:09:40;;;;;;;20.80;11.47;;;4.50;1.00;;;;;;4969062;28;20449;-58
2022/11/21 05:14:52;;;;;;;17.37;11.07;;;4.50;1.00;;;;;;4965864;28;20300;-54
2022/11/21 05:17:18;;;;;;;16.57;11.27;;;4.50;1.00;;;;;;4970896;28;20543;-52
2022/11/21 05:19:43;;;;;;;20.73;12.00;;;4.50;1.00;;;;;;4968578;28;20205;-55
2022/11/21 05:22:09;;;;;;;17.63;11.80;;;4.50;1.00;;;;;;4970257;28;20193;-52
2022/11/21 05:24:35;;;;;;;15.80;11.30;;;4.50;1.00;;;;;;4967698;28;20188;-54
2022/11/21 05:27:01;;;;;;;13.97;10.83;;;4.60;1.00;;;;;;4969340;28;20253;-56
2022/11/21 05:29:26;;;;;;;18.40;12.80;;;4.60;1.00;;;;;;4967142;28;20456;-55
2022/11/21 05:31:52;;;;;;;14.33;10.80;;;4.70;1.00;;;;;;4968875;28;20283;-56
2022/11/21 05:34:17;;;;;;;19.90;12.90;;;4.80;1.00;;;;;;4969723;28;20213;-54
2022/11/21 05:36:43;;;;;;;18.13;11.77;;;;;;;;;;4970203;28;20280;-55
2022/11/21 05:39:09;;;;;;;17.90;12.77;;;4.90;1.00;;;;;;4968661;28;20180;-55
2022/11/21 05:41:35;;;;;;;21.03;12.50;;;;;;;;;;4967202;28;20498;-57
2022/11/21 05:44:00;;;;;;;20.87;12.30;;;4.90;1.00;;;;;;4970023;28;20208;-55
2022/11/21 05:46:26;;;;;;;19.27;12.40;;;4.90;1.00;;;;;;4968174;28;20547;-54
2022/11/21 05:48:53;;;;;;;24.40;13.40;;;5.00;1.00;;;;;;4967134;28;20289;-58
2022/11/21 05:51:20;;;;;;;20.13;12.93;;;5.10;1.00;;;;;;4969175;28;20194;-57
2022/11/21 05:53:46;;;;;;;27.00;15.53;;;5.00;1.00;;;;;;4968813;28;20463;-57
2022/11/21 05:56:14;;;;;;;19.63;12.87;;;5.10;1.00;;;;;;4967748;28;20533;-55
2022/11/21 05:58:40;;;;;;;20.13;12.87;;;5.00;1.00;;;;;;4968581;28;20728;-58
2022/11/21 06:01:07;;;;;;;18.73;12.13;;;4.90;1.00;;;;;;4969192;28;20453;-55
2022/11/21 06:03:36;;;;;;;17.83;13.10;;;4.90;1.00;;;;;;4969595;28;20811;-57
2022/11/21 06:06:07;;;;;;;18.90;12.83;;;4.90;1.00;;;;;;4966993;28;20479;-57
2022/11/21 06:08:44;;;;;;;21.97;13.03;;;4.90;1.00;;;;;;4965458;28;20427;-55
2022/11/21 06:11:12;;;;;;;19.57;13.30;;;4.90;1.00;;;;;;4969780;28;20478;-54
2022/11/21 06:13:39;;;;;;;21.03;13.10;;;5.00;1.00;;;;;;4968906;28;20464;-57
2022/11/21 06:16:07;;;;;;;24.40;14.70;;;4.90;1.00;;;;;;4967181;28;20805;-55
2022/11/21 06:18:35;;;;;;;20.87;13.00;;;5.00;1.00;;;;;;4968322;28;20798;-56
2022/11/21 06:21:11;;;;;;;20.00;14.30;;;5.00;1.00;;;;;;4967515;28;20874;-55
2022/11/21 06:23:37;;;;;;;23.07;14.83;;;4.90;1.00;;;;;;4967269;28;20457;-57
2022/11/21 06:26:05;;;;;;;24.13;14.40;;;5.00;1.00;;;;;;4968044;28;20521;-56
2022/11/21 06:28:41;;;;;;;20.17;13.13;;;4.90;1.00;;;;;;4967232;28;20453;-55
2022/11/21 06:31:09;;;;;;;21.73;13.07;;;4.90;1.00;;;;;;4968132;28;20482;-56
2022/11/21 06:33:35;;;;;;;28.00;16.43;;;4.90;1.00;;;;;;4968362;28;20453;-57
2022/11/21 06:36:06;;;;;;;21.40;13.43;;;4.80;1.00;;;;;;4967348;28;21007;-55
2022/11/21 06:38:32;;;;;;;19.97;14.77;;;4.90;1.00;;;;;;4966777;28;20491;-57
2022/11/21 06:41:03;;;;;;;25.10;17.20;;;4.90;1.00;;;;;;4969509;28;20848;-56
2022/11/21 06:43:29;;;;;;;24.60;16.80;;;5.40;1.00;;;;;;4961788;28;20453;-54
2022/11/21 06:45:55;;;;;;;20.80;14.33;;;4.80;1.00;;;;;;4967729;28;20966;-54
2022/11/21 06:48:21;;;;;;;23.87;14.43;;;4.70;1.00;;;;;;4969562;28;20186;-53
2022/11/21 06:50:47;;;;;;;27.27;18.10;;;4.60;1.00;;;;;;4966562;28;20546;-54
2022/11/21 06:53:12;;;;;;;29.20;16.60;;;4.50;1.00;;;;;;4969149;28;20192;-53
2022/11/21 06:55:38;;;;;;;27.00;15.30;;;4.50;1.00;;;;;;4969682;28;20212;-55
2022/11/21 06:58:03;;;;;;;21.50;14.70;;;4.60;1.00;;;;;;4968755;28;20473;-54
2022/11/21 07:00:29;;;;;;;26.90;16.03;;;4.60;1.00;;;;;;4965742;28;20182;-54
2022/11/21 07:03:00;;;;;;;24.63;15.13;;;4.60;1.00;;;;;;4968990;28;21025;-56
2022/11/21 07:05:26;;;;;;;23.67;14.93;;;4.60;1.00;;;;;;4969060;28;20197;-54
2022/11/21 07:07:58;;;;;;;22.97;14.77;;;4.60;1.00;;;;;;4969188;28;20984;-56
2022/11/21 07:10:24;;;;;;;21.93;15.57;;;;;;;;;;4968439;28;20528;-54
2022/11/21 07:15:34;;;;;;;25.30;15.23;;;4.30;1.00;;;;;;4967247;28;20483;-55
2022/11/21 07:17:59;;;;;;;22.17;14.43;;;4.40;1.00;;;;;;4972001;28;21025;-54
2022/11/21 07:20:25;;;;;;;22.63;14.17;;;4.40;1.00;;;;;;4972774;28;20529;-54
2022/11/21 07:22:54;;;;;;;21.60;13.77;;;4.40;1.00;;;;;;4972655;28;20185;-57
2022/11/21 07:25:20;;;;;;;23.67;13.87;;;4.30;1.00;;;;;;4972161;28;20564;-53
2022/11/21 07:27:46;;;;;;;23.30;14.73;;;;;;;;;;4972057;28;20528;-55
2022/11/21 07:30:13;;;;;;;28.37;16.50;;;4.20;1.00;;;;;;4972670;28;20463;-55
2022/11/21 07:32:38;;;;;;;22.33;14.50;;;4.10;1.00;;;;;;4972146;28;20512;-54
2022/11/21 07:35:05;;;;;;;28.30;16.90;;;3.90;1.00;;;;;;4972349;28;20510;-53
2022/11/21 07:37:30;;;;;;;28.73;16.03;;;3.90;1.00;;;;;;4968818;28;20611;-53
2022/11/21 07:39:56;;;;;;;24.30;15.47;;;3.90;1.00;;;;;;4970758;28;20542;-54
2022/11/21 07:42:22;;;;;;;27.73;15.90;;;;;;;;;;4970901;28;20221;-55
2022/11/21 07:44:48;;;;;;;27.47;15.30;;;3.70;1.00;;;;;;4971428;28;20301;-53
2022/11/21 07:47:13;;;;;;;26.90;15.40;;;3.70;1.00;;;;;;4972270;28;20874;-53
2022/11/21 07:49:39;;;;;;;23.90;15.23;;;3.70;1.00;;;;;;4971990;28;20193;-55
2022/11/21 07:52:05;;;;;;;18.90;13.27;;;3.70;1.00;;;;;;4972755;28;20233;-54
2022/11/21 07:54:30;;;;;;;22.37;15.13;;;3.60;1.00;;;;;;4972554;28;20218;-53
2022/11/21 07:56:56;;;;;;;22.70;14.13;;;3.60;1.00;;;;;;4972083;28;20189;-55
2022/11/21 07:59:21;;;;;;;24.93;14.87;;;3.40;1.00;;;;;;4972340;28;20182;-54
2022/11/21 08:01:49;;;;;;;27.57;15.43;;;3.20;1.00;;;;;;4972213;28;20208;-53
2022/11/21 08:04:14;;;;;;;25.17;17.00;;;3.20;1.00;;;;;;4971839;28;20200;-53
2022/11/21 08:06:40;;;;;;;28.50;17.67;;;3.20;1.00;;;;;;4970365;28;20457;-53
2022/11/21 08:09:07;;;;;;;24.17;17.07;;;3.10;1.00;;;;;;4971151;28;20190;-53
2022/11/21 08:11:35;;;;;;;25.20;16.43;;;3.00;1.00;;;;;;4971680;28;20654;-54
2022/11/21 08:14:01;;;;;;;24.77;16.60;;;2.90;1.00;;;;;;4970421;28;20544;-54
2022/11/21 08:16:26;;;;;;;26.07;15.67;;;2.80;1.00;;;;;;4971946;28;20623;-54
2022/11/21 08:18:53;;;;;;;26.87;17.80;;;;;;;;;;4971092;28;20213;-55
2022/11/21 08:21:18;;;;;;;27.27;13.73;;;2.50;1.00;;;;;;4972025;28;20194;-53
2022/11/21 08:23:44;;;;;;;22.00;12.10;;;2.50;1.00;;;;;;4971360;28;20484;-54
2022/11/21 08:26:10;;;;;;;20.20;12.70;;;2.60;1.00;;;;;;4970149;28;20748;-54
2022/11/21 08:28:35;;;;;;;23.43;14.33;;;2.60;1.00;;;;;;4969754;28;20209;-54
2022/11/21 08:31:05;;;;;;;24.67;16.30;;;2.60;1.00;;;;;;4968513;28;20639;-55
2022/11/21 08:33:31;;;;;;;21.40;14.73;;;2.60;1.00;;;;;;4970912;28;20260;-53
2022/11/21 08:35:57;;;;;;;28.20;16.10;;;;;;;;;;4967535;28;20507;-54
2022/11/21 08:38:23;;;;;;;19.73;13.17;;;2.40;1.00;;;;;;4970689;28;20942;-55
2022/11/21 08:42:01;;;;;;;22.03;14.60;;;2.40;1.00;;;;;;4972147;28;20441;-53
2022/11/21 08:43:37;;;;;;;26.97;16.90;;;2.40;1.00;;;;;;4969628;28;20190;-53
2022/11/21 08:46:02;;;;;;;26.43;15.47;;;2.30;1.00;;;;;;4970749;28;20548;-54
2022/11/21 08:48:28;;;;;;;34.13;19.43;;;;;;;;;;4970566;28;20278;-55
2022/11/21 08:50:56;;;;;;;23.63;15.80;;;2.50;1.00;;;;;;4968786;28;20643;-54
2022/11/21 08:53:22;;;;;;;30.47;16.60;;;2.40;1.00;;;;;;4971727;28;20449;-53
2022/11/21 08:55:47;;;;;;;25.37;15.00;;;2.40;1.00;;;;;;4970832;28;20488;-56
2022/11/21 08:58:13;;;;;;;24.83;15.50;;;2.20;1.00;;;;;;4971946;28;20196;-59
2022/11/21 09:00:39;;;;;;;22.20;14.43;;;2.30;1.00;;;;;;4971075;28;20270;-60
2022/11/21 09:03:05;;;;;;;24.53;16.40;;;2.40;1.00;;;;;;4970045;28;20638;-58
2022/11/21 09:05:32;;;;;;;26.63;15.67;;;2.50;1.00;;;;;;4971038;28;20453;-56
2022/11/21 09:07:58;;;;;;;23.63;15.27;;;2.60;1.00;;;;;;4970710;28;20452;-56
2022/11/21 09:10:25;;;;;;;24.77;15.67;;;2.60;1.00;;;;;;4971253;28;20487;-57
2022/11/21 09:12:51;;;;;;;23.23;14.87;;;;;;;;;;4971423;28;20518;-57
2022/11/21 09:18:01;;;;;;;24.03;14.70;;;;;;;;;;4971182;28;20617;-58
2022/11/21 09:20:28;;;;;;;24.37;14.40;;;;;;;;;;4970846;28;20435;-56
2022/11/21 09:22:53;;;;;;;25.03;15.37;;;2.40;1.00;;;;;;4968759;28;20953;-57
2022/11/21 09:25:19;;;;;;;22.80;13.63;;;2.40;1.00;;;;;;4969300;28;20464;-58
2022/11/21 09:27:45;;;;;;;26.40;14.90;;;2.30;1.00;;;;;;4968585;28;20205;-57
2022/11/21 09:30:11;;;;;;;24.63;15.37;;;;;;;;;;4969012;28;20269;-57
2022/11/21 09:32:36;;;;;;;26.93;15.83;;;2.30;1.00;;;;;;4968042;28;20303;-56
2022/11/21 09:35:02;;;;;;;32.57;16.97;;;2.30;1.00;;;;;;4969090;28;20571;-56
2022/11/21 09:37:28;;;;;;;30.33;15.73;;;;;;;;;;4970116;28;20186;-57
2022/11/21 09:39:54;;;;;;;28.47;16.53;;;;;;;;;;4969646;28;20464;-57
2022/11/21 09:42:41;;;;;;;27.57;18.10;;;2.30;1.00;;;;;;4970411;28;20561;-55
2022/11/21 09:45:13;;;;;;;28.73;17.73;;;2.40;1.00;;;;;;4968985;28;21222;-56
2022/11/21 09:47:46;;;;;;;27.77;17.10;;;2.50;1.00;;;;;;4969844;28;20484;-57
2022/11/21 09:50:11;;;;;;;29.07;16.83;;;2.40;1.00;;;;;;4967998;28;20511;-56
2022/11/21 09:52:39;;;;;;;30.47;17.30;;;2.50;1.00;;;;;;4969585;28;20780;-56
2022/11/21 09:55:15;;;;;;;30.50;18.27;;;2.70;1.00;;;;;;4969046;28;20606;-56
2022/11/21 09:57:41;;;;;;;31.13;17.40;;;;;;;;;;4968731;28;20834;-57
2022/11/21 10:00:21;;;;;;;32.23;18.60;;;3.00;1.00;;;;;;4969383;28;20492;-56
2022/11/21 10:02:47;;;;;;;30.40;19.10;;;2.90;1.00;;;;;;4969141;28;20518;-54
2022/11/21 10:05:14;;;;;;;33.27;18.93;;;3.10;1.00;;;;;;4969749;28;20457;-54
2022/11/21 10:07:41;;;;;;;30.63;17.67;;;3.20;1.00;;;;;;4968244;28;20518;-53
2022/11/21 10:10:48;;;;;;;31.77;18.13;;;3.00;1.00;;;;;;4970630;28;20449;-52
2022/11/21 10:13:29;;;;;;;24.77;15.47;;;2.80;1.00;;;;;;4947279;28;20608;-53
2022/11/21 10:16:07;;;;;;;30.57;17.70;;;2.80;1.00;;;;;;4948307;28;20604;-54
2022/11/21 10:18:57;;;;;;;30.23;17.13;;;2.90;1.00;;;;;;4961247;28;20459;-53
2022/11/21 10:21:23;;;;;;;29.03;16.20;;;2.90;1.00;;;;;;4969642;28;20505;-54
2022/11/21 10:24:10;;;;;;;31.40;16.77;;;3.00;1.00;;;;;;4970394;28;20466;-54
2022/11/21 10:26:54;;;;;;;27.30;17.90;;;3.00;1.00;;;;;;4968987;28;20558;-52
2022/11/21 10:29:37;;;;;;;30.30;17.37;;;2.90;1.00;;;;;;4970133;28;20455;-52
2022/11/21 10:32:13;;;;;;;24.80;15.70;;;3.00;1.00;;;;;;4969544;28;20779;-52
2022/11/21 10:34:40;;;;;;;26.07;16.23;;;;;;;;;;4967727;28;20455;-52
2022/11/21 10:37:23;;;;;;;27.90;16.63;;;3.20;1.00;;;;;;4969379;28;20447;-52
2022/11/21 10:39:51;;;;;;;25.80;16.63;;;3.30;1.00;;;;;;4969610;28;21480;-53
2022/11/21 10:42:37;;;;;;;26.00;16.50;;;3.30;1.00;;;;;;4969077;28;20426;-54
2022/11/21 10:45:17;;;;;;;31.53;17.70;;;3.30;1.00;;;;;;4967798;28;20463;-52
2022/11/21 10:47:45;;;;;;;29.90;17.03;;;3.20;1.00;;;;;;4970210;28;20443;-53
2022/11/21 10:50:29;;;;;;;29.13;16.67;;;3.30;1.00;;;;;;4968509;28;20935;-53
2022/11/21 10:54:31;;;;;;;29.10;18.03;;;3.20;1.00;;;;;;4970291;28;20789;-53
2022/11/21 10:56:00;;;;;;;27.70;15.77;;;3.10;1.00;;;;;;4973387;28;20472;-55
2022/11/21 10:58:52;;;;;;;28.13;16.97;;;3.20;1.00;;;;;;4968791;28;20456;-54
2022/11/21 11:01:32;;;;;;;29.17;16.37;;;3.20;1.00;;;;;;4970926;28;20441;-53
2022/11/21 11:04:07;;;;;;;30.00;17.03;;;3.20;1.00;;;;;;4973404;28;20487;-53
2022/11/21 11:06:32;;;;;;;26.80;16.50;;;3.30;1.00;;;;;;4973420;28;20436;-55
2022/11/21 11:08:58;;;;;;;26.70;15.47;;;3.30;1.00;;;;;;4973235;28;20439;-53
2022/11/21 11:11:26;;;;;;;25.80;15.90;;;3.40;1.00;;;;;;4970207;28;20200;-53
2022/11/21 11:13:59;;;;;;;26.90;17.53;;;3.50;1.00;;;;;;4972546;28;20448;-53
2022/11/21 11:16:27;;;;;;;24.23;15.00;;;3.70;1.00;;;;;;4973465;28;20475;-51
2022/11/21 11:19:03;;;;;;;25.70;16.40;;;3.60;1.00;;;;;;4973191;28;20957;-53
2022/11/21 11:21:45;;;;;;;23.83;15.80;;;3.50;1.00;;;;;;4973583;28;21020;-53
2022/11/21 11:24:11;;;;;;;27.37;16.80;;;3.40;1.00;;;;;;4973330;28;20437;-54
2022/11/21 11:26:45;;;;;;;24.40;15.07;;;3.50;1.00;;;;;;4970863;28;20457;-54
2022/11/21 11:29:15;;;;;;;26.03;14.03;;;3.60;1.00;;;;;;4971491;28;20214;-57
2022/11/21 11:31:50;;;;;;;26.83;15.50;;;3.60;1.00;;;;;;4973280;28;20529;-54
2022/11/21 11:34:18;;;;;;;26.40;16.30;;;3.60;1.00;;;;;;4973249;28;20451;-52
2022/11/21 11:37:10;;;;;;;27.00;15.97;;;3.60;1.00;;;;;;4972777;28;20581;-53
2022/11/21 11:40:11;;;;;;;24.83;15.30;;;3.50;1.00;;;;;;4972888;28;20441;-52
2022/11/21 11:47:29;;;;;;;23.07;14.00;;;3.70;1.00;;;;;;4971447;28;20632;-52
2022/11/21 11:49:02;;;;;;;25.67;15.23;;;4.00;1.00;;;;;;4972089;28;20482;-53
2022/11/21 11:51:39;;;;;;;23.30;14.70;;;4.20;1.00;;;;;;4971509;28;20460;-53
2022/11/21 11:54:38;;;;;;;22.73;14.30;;;4.10;1.00;;;;;;4971800;28;20439;-54
2022/11/21 11:57:05;;;;;;;23.30;15.03;;;4.00;1.00;;;;;;4971563;28;20449;-53
2022/11/21 11:59:39;;;;;;;21.47;13.13;;;4.10;1.00;;;;;;4973075;28;20544;-53
2022/11/21 12:02:11;;;;;;;23.83;14.53;;;4.00;1.00;;;;;;4972281;28;20499;-53
2022/11/21 12:04:45;;;;;;;23.07;13.90;;;4.10;1.00;;;;;;4972779;28;20935;-53
2022/11/21 12:07:19;;;;;;;23.17;13.80;;;4.00;1.00;;;;;;4972650;28;20991;-54
2022/11/21 12:10:00;;;;;;;24.00;15.33;;;4.00;1.00;;;;;;4972658;28;20443;-54
2022/11/21 12:12:35;;;;;;;24.60;15.10;;;4.00;1.00;;;;;;4971219;28;20552;-52
2022/11/21 12:18:09;;;;;;;20.57;12.60;;;4.20;1.00;;;;;;4970678;28;20440;-54
2022/11/21 12:21:13;;;;;;;24.17;14.27;;;4.20;1.00;;;;;;4971441;28;20749;-54
2022/11/21 12:23:39;;;;;;;23.03;13.00;;;;;;;;;;4971424;28;20623;-52
2022/11/21 12:26:36;;;;;;;22.00;15.10;;;4.20;1.00;;;;;;4970446;28;20879;-53
2022/11/21 12:29:22;;;;;;;19.63;12.97;;;4.20;1.00;;;;;;4969465;28;20796;-53
2022/11/21 12:32:15;;;;;;;24.30;16.20;;;4.40;1.00;;;;;;4970954;28;20932;-52
2022/11/21 12:34:58;;;;;;;22.07;14.40;;;4.40;1.00;;;;;;4967966;28;20512;-53
2022/11/21 12:37:25;;;;;;;24.07;14.33;;;;;;;;;;4965060;28;20753;-52
2022/11/21 12:39:59;;;;;;;27.77;16.20;;;4.40;1.00;;;;;;4968778;28;20448;-52
2022/11/21 12:42:50;;;;;;;24.77;14.23;;;4.40;1.00;;;;;;4984224;28;20452;-52
2022/11/21 12:45:36;;;;;;;23.53;14.63;;;4.20;1.00;;;;;;4968775;28;20454;-53
2022/11/21 12:54:29;;;;;;;22.80;15.20;;;4.20;1.00;;;;;;4970316;28;20541;-54
2022/11/21 12:57:04;;;;;;;22.23;13.47;;;4.40;1.00;;;;;;4968374;28;20481;-52
2022/11/21 12:59:34;;;;;;;25.57;14.43;;;4.50;1.00;;;;;;4969318;28;20463;-51
2022/11/21 13:02:12;;;;;;;21.53;13.70;;;4.40;1.00;;;;;;4969119;28;20875;-53
2022/11/21 13:04:41;;;;;;;23.13;14.50;;;4.40;1.00;;;;;;4970804;28;20439;-51
2022/11/21 13:07:07;;;;;;;26.60;16.87;;;4.20;1.00;;;;;;4970513;28;20430;-52
2022/11/21 13:09:41;;;;;;;21.33;14.20;;;4.20;1.00;;;;;;4967744;28;20624;-53
2022/11/21 13:12:17;;;;;;;26.37;14.83;;;4.20;1.00;;;;;;4968242;28;20798;-53
2022/11/21 13:14:56;;;;;;;19.73;12.63;;;4.20;1.00;;;;;;4968786;28;20451;-51
2022/11/21 13:17:25;;;;;;;23.93;15.13;;;4.50;1.00;;;;;;4966063;28;20464;-53
2022/11/21 13:20:00;;;;;;;22.47;13.27;;;4.50;1.00;;;;;;4967887;28;20460;-53
2022/11/21 13:22:35;;;;;;;22.90;15.43;;;4.60;1.00;;;;;;4967800;28;20448;-53
2022/11/21 13:25:08;;;;;;;25.60;15.53;;;4.60;1.00;;;;;;4971292;28;21126;-53